Time;durP1;ratioP1;P1;durP2;ratioP2;P2;SDS_P1;SDS_P2;PMS_P1;PMS_P2;Temp;Humidity;BMP_temperature;BMP_pressure;BME280_temperature;BME280_humidity;BME280_pressure;Samples;Min_cycle;Max_cycle;Signal;HPM_P1;HPM_P2
2023/09/01 00:01:54;;;;;;;4.38;2.75;;;11.10;99.90;;;;;;5094020;27;20082;-68
2023/09/01 00:04:20;;;;;;;5.88;3.15;;;11.10;99.90;;;;;;5077463;28;20062;-67
2023/09/01 00:06:47;;;;;;;6.95;2.70;;;11.00;99.90;;;;;;5093230;27;20047;-67
2023/09/01 00:09:14;;;;;;;5.05;2.85;;;11.00;99.90;;;;;;5093511;27;20039;-66
2023/09/01 00:11:41;;;;;;;8.98;3.10;;;11.10;99.90;;;;;;5075955;28;20487;-66
2023/09/01 00:14:10;;;;;;;7.70;3.53;;;11.00;99.90;;;;;;5093042;27;20045;-66
2023/09/01 00:16:36;;;;;;;10.48;3.45;;;11.00;99.90;;;;;;5093903;27;20066;-66
2023/09/01 00:19:03;;;;;;;6.40;3.47;;;11.00;99.90;;;;;;5076077;28;20048;-67
2023/09/01 00:21:32;;;;;;;8.00;3.70;;;11.00;99.90;;;;;;5077033;28;20120;-67
2023/09/01 00:23:59;;;;;;;6.50;3.50;;;10.90;99.90;;;;;;5075879;28;20484;-67
2023/09/01 00:26:26;;;;;;;6.57;3.50;;;10.90;99.90;;;;;;5093612;27;20438;-67
2023/09/01 00:28:53;;;;;;;6.03;3.40;;;10.90;99.90;;;;;;5092881;28;20492;-67
2023/09/01 00:31:21;;;;;;;5.47;3.20;;;10.90;99.90;;;;;;5076276;28;20157;-66
2023/09/01 00:33:48;;;;;;;4.82;3.35;;;10.80;99.90;;;;;;5092574;28;20410;-66
2023/09/01 00:36:15;;;;;;;4.75;3.33;;;10.80;99.90;;;;;;5075495;28;20625;-66
2023/09/01 00:38:42;;;;;;;4.50;3.20;;;10.80;99.90;;;;;;5077192;28;20468;-66
2023/09/01 00:41:09;;;;;;;6.78;2.97;;;10.80;99.90;;;;;;5075279;28;20134;-66
2023/09/01 00:43:36;;;;;;;5.70;3.05;;;10.80;99.90;;;;;;5076933;28;20454;-65
2023/09/01 00:46:03;;;;;;;7.75;3.33;;;10.80;99.90;;;;;;5093280;28;20462;-65
2023/09/01 00:48:31;;;;;;;9.02;3.47;;;10.70;99.90;;;;;;5092593;28;20512;-66
2023/09/01 00:50:58;;;;;;;5.13;3.42;;;10.70;99.90;;;;;;5112747;28;20051;-66
2023/09/01 00:53:27;;;;;;;10.70;3.72;;;10.60;99.90;;;;;;5098227;27;20058;-66
2023/09/01 00:55:57;;;;;;;5.85;3.00;;;10.60;99.90;;;;;;5080354;28;20071;-66
2023/09/01 00:58:24;;;;;;;8.70;3.33;;;10.60;99.90;;;;;;5097020;27;20052;-66
2023/09/01 01:00:52;;;;;;;4.55;2.70;;;10.60;99.90;;;;;;5079846;27;20381;-67
2023/09/01 01:03:21;;;;;;;5.55;3.58;;;10.60;99.90;;;;;;5080033;27;20059;-67
2023/09/01 01:06:09;;;;;;;7.85;3.20;;;10.60;99.90;;;;;;5080992;28;20131;-67
2023/09/01 01:08:43;;;;;;;7.88;3.40;;;10.50;99.90;;;;;;5115960;28;20384;-66
2023/09/01 01:11:16;;;;;;;7.05;3.40;;;10.50;99.90;;;;;;5078806;28;20472;-66
2023/09/01 01:13:48;;;;;;;6.15;3.72;;;10.50;99.90;;;;;;5097154;27;20051;-66
2023/09/01 01:16:17;;;;;;;4.78;3.33;;;10.50;99.90;;;;;;5079078;28;20135;-66
2023/09/01 01:18:46;;;;;;;4.68;3.63;;;10.50;99.90;;;;;;5079970;28;20492;-66
2023/09/01 01:21:22;;;;;;;6.73;3.30;;;10.50;99.90;;;;;;5080963;28;20048;-67
2023/09/01 01:23:52;;;;;;;6.65;2.65;;;10.40;99.90;;;;;;5096010;27;20492;-67
2023/09/01 01:26:19;;;;;;;4.45;2.97;;;10.40;99.90;;;;;;5078851;27;20047;-67
2023/09/01 01:28:46;;;;;;;7.25;3.47;;;10.40;99.90;;;;;;5079740;28;20407;-67
2023/09/01 01:31:14;;;;;;;6.30;3.10;;;10.30;99.90;;;;;;5130428;27;20043;-67
2023/09/01 01:33:49;;;;;;;8.50;3.03;;;10.30;99.90;;;;;;5116759;27;20057;-68
2023/09/01 01:36:21;;;;;;;6.57;3.10;;;10.30;99.90;;;;;;5116944;27;20429;-67
2023/09/01 01:38:55;;;;;;;5.40;3.15;;;10.30;99.90;;;;;;5134232;27;20058;-67
2023/09/01 01:41:34;;;;;;;5.22;3.10;;;10.30;99.90;;;;;;5116475;27;20054;-67
2023/09/01 01:44:03;;;;;;;4.60;2.97;;;10.20;99.90;;;;;;5094159;27;20052;-67
2023/09/01 01:46:30;;;;;;;5.70;3.30;;;10.20;99.90;;;;;;5078107;27;20496;-66
2023/09/01 01:48:57;;;;;;;5.28;3.08;;;10.30;99.90;;;;;;5080005;28;20060;-68
2023/09/01 01:51:24;;;;;;;5.78;3.42;;;10.30;99.90;;;;;;5078452;28;20044;-68
2023/09/01 01:53:52;;;;;;;6.40;3.05;;;10.20;99.90;;;;;;5079851;28;20090;-67
2023/09/01 01:56:19;;;;;;;5.82;3.38;;;10.20;99.90;;;;;;5096301;27;20078;-68
2023/09/01 01:58:46;;;;;;;7.03;2.83;;;10.20;99.90;;;;;;5078760;28;20491;-69
2023/09/01 02:01:13;;;;;;;4.60;2.63;;;10.20;99.90;;;;;;5096012;27;20047;-68
2023/09/01 02:03:40;;;;;;;9.77;3.38;;;10.20;99.90;;;;;;5095875;27;20048;-68
2023/09/01 02:06:07;;;;;;;8.85;3.08;;;10.20;99.90;;;;;;5077675;28;20040;-68
2023/09/01 02:08:34;;;;;;;8.32;3.63;;;10.20;99.90;;;;;;5095802;27;20514;-68
2023/09/01 02:11:03;;;;;;;6.00;3.63;;;10.20;99.90;;;;;;5077912;27;20395;-68
2023/09/01 02:13:30;;;;;;;8.05;3.45;;;10.20;99.90;;;;;;5077892;27;20135;-68
2023/09/01 02:15:57;;;;;;;5.20;3.35;;;10.20;99.90;;;;;;5095834;27;20058;-68
2023/09/01 02:18:24;;;;;;;8.45;3.55;;;10.20;99.90;;;;;;5078303;27;20446;-68
2023/09/01 02:20:52;;;;;;;6.20;3.65;;;10.10;99.90;;;;;;5095153;27;20074;-68
2023/09/01 02:23:19;;;;;;;7.88;4.32;;;10.10;99.90;;;;;;5095764;27;20480;-68
2023/09/01 02:25:46;;;;;;;6.55;3.72;;;10.10;99.90;;;;;;5078216;27;20495;-68
2023/09/01 02:28:15;;;;;;;8.65;3.67;;;10.10;99.90;;;;;;5078944;28;20070;-67
2023/09/01 02:30:42;;;;;;;5.90;3.53;;;10.10;99.90;;;;;;5077622;28;20044;-66
2023/09/01 02:33:09;;;;;;;5.97;3.50;;;10.00;99.90;;;;;;5078828;27;20044;-66
2023/09/01 02:35:44;;;;;;;4.53;3.05;;;10.00;99.90;;;;;;5111819;28;20402;-67
2023/09/01 02:38:11;;;;;;;4.93;3.15;;;10.00;99.90;;;;;;5097527;27;20131;-67
2023/09/01 02:40:38;;;;;;;5.05;3.10;;;10.00;99.90;;;;;;5094802;27;20044;-67
2023/09/01 02:43:05;;;;;;;5.70;3.22;;;10.00;99.90;;;;;;5079238;28;20044;-67
2023/09/01 02:45:34;;;;;;;6.07;3.65;;;10.00;99.90;;;;;;5077814;27;20507;-66
2023/09/01 02:48:00;;;;;;;5.90;2.92;;;10.00;99.90;;;;;;5094555;27;20472;-67
2023/09/01 02:50:27;;;;;;;6.20;3.22;;;10.00;99.90;;;;;;5096052;28;20537;-66
2023/09/01 02:52:54;;;;;;;7.55;3.67;;;9.90;99.90;;;;;;5096089;27;20052;-66
2023/09/01 02:55:21;;;;;;;5.15;3.35;;;9.90;99.90;;;;;;5094386;27;20052;-67
2023/09/01 02:57:49;;;;;;;7.18;3.95;;;9.90;99.90;;;;;;5076843;28;20489;-67
2023/09/01 03:00:18;;;;;;;4.53;3.15;;;9.90;99.90;;;;;;5094322;28;20048;-66
2023/09/01 03:02:46;;;;;;;5.47;4.00;;;9.80;99.90;;;;;;5093630;28;20040;-65
2023/09/01 03:05:13;;;;;;;6.97;4.10;;;9.80;99.90;;;;;;5076716;28;20098;-66
2023/09/01 03:07:41;;;;;;;7.50;3.80;;;9.80;99.90;;;;;;5113534;28;20049;-66
2023/09/01 03:10:09;;;;;;;6.30;3.78;;;9.70;99.90;;;;;;5110986;28;20522;-67
2023/09/01 03:12:38;;;;;;;11.90;3.83;;;9.70;99.90;;;;;;5091704;28;20118;-67
2023/09/01 03:15:07;;;;;;;8.77;3.90;;;9.70;99.90;;;;;;5076394;28;20075;-67
2023/09/01 03:17:34;;;;;;;7.60;3.90;;;9.70;99.90;;;;;;5093385;28;20048;-66
2023/09/01 03:20:04;;;;;;;6.05;3.40;;;9.70;99.90;;;;;;5091899;28;20039;-67
2023/09/01 03:22:30;;;;;;;6.93;4.43;;;9.70;99.90;;;;;;5076442;28;20548;-67
2023/09/01 03:24:57;;;;;;;5.03;3.30;;;9.70;99.90;;;;;;5075868;28;20110;-66
2023/09/01 03:27:24;;;;;;;7.28;3.92;;;8.90;99.90;;;;;;5076256;28;20051;-67
2023/09/01 03:29:55;;;;;;;7.05;3.72;;;9.70;99.90;;;;;;5093022;28;20044;-67
2023/09/01 03:32:22;;;;;;;5.32;3.50;;;9.60;99.90;;;;;;5094038;28;20048;-68
2023/09/01 03:34:49;;;;;;;4.93;3.25;;;9.60;99.90;;;;;;5076391;28;20439;-68
2023/09/01 03:37:18;;;;;;;11.65;3.33;;;9.60;99.90;;;;;;5075508;28;20446;-66
2023/09/01 03:39:45;;;;;;;5.88;3.03;;;9.60;99.90;;;;;;5076170;28;20140;-68
2023/09/01 03:42:12;;;;;;;6.18;3.38;;;9.60;99.90;;;;;;5093789;28;20399;-66
2023/09/01 03:44:39;;;;;;;4.30;2.95;;;9.60;99.90;;;;;;5087508;28;20052;-67
2023/09/01 03:47:06;;;;;;;4.55;2.85;;;9.70;99.90;;;;;;5089928;28;20442;-66
2023/09/01 03:49:33;;;;;;;4.90;3.03;;;9.70;99.90;;;;;;5085403;28;20044;-68
2023/09/01 03:52:00;;;;;;;5.38;3.35;;;9.80;99.90;;;;;;5092115;28;20052;-68
2023/09/01 03:54:29;;;;;;;6.53;4.07;;;9.90;99.90;;;;;;5098605;28;20562;-66
2023/09/01 03:56:56;;;;;;;6.10;3.78;;;9.90;99.90;;;;;;5110482;27;20044;-66
2023/09/01 03:59:23;;;;;;;5.20;3.30;;;9.90;99.90;;;;;;5090806;28;20138;-67
2023/09/01 04:01:50;;;;;;;5.63;3.30;;;10.00;99.90;;;;;;5088046;28;20044;-67
2023/09/01 04:04:18;;;;;;;6.82;3.70;;;10.00;99.90;;;;;;5093030;28;20066;-67
2023/09/01 04:06:45;;;;;;;9.30;3.38;;;10.00;99.90;;;;;;5108526;28;20100;-67
2023/09/01 04:09:12;;;;;;;4.85;2.80;;;10.00;99.90;;;;;;5092740;28;20112;-66
2023/09/01 04:11:41;;;;;;;9.50;3.67;;;10.10;99.90;;;;;;5085263;28;20480;-66
2023/09/01 04:14:10;;;;;;;5.05;3.60;;;10.10;99.90;;;;;;5108005;27;20056;-67
2023/09/01 04:16:38;;;;;;;7.38;3.65;;;10.20;99.90;;;;;;5104622;28;20050;-67
2023/09/01 04:19:05;;;;;;;7.03;3.05;;;10.20;99.90;;;;;;5108101;28;20044;-67
2023/09/01 04:21:32;;;;;;;6.07;3.13;;;10.30;99.90;;;;;;5089403;28;20415;-66
2023/09/01 04:23:59;;;;;;;6.20;3.35;;;10.30;99.90;;;;;;5116408;27;20052;-67
2023/09/01 04:26:26;;;;;;;4.35;2.80;;;10.30;99.90;;;;;;5087976;28;20044;-66
2023/09/01 04:28:55;;;;;;;5.32;3.17;;;10.30;99.90;;;;;;5092635;28;20059;-66
2023/09/01 04:31:30;;;;;;;4.20;2.75;;;10.30;99.90;;;;;;5127060;28;20046;-67
2023/09/01 04:33:57;;;;;;;5.00;2.33;;;10.10;99.90;;;;;;5118204;28;20031;-67
2023/09/01 04:36:24;;;;;;;8.20;3.15;;;10.10;99.90;;;;;;5118396;28;20044;-67
2023/09/01 04:38:52;;;;;;;6.93;3.63;;;10.10;99.90;;;;;;5111824;28;20066;-66
2023/09/01 04:41:19;;;;;;;4.57;3.20;;;10.10;99.90;;;;;;5107950;28;20048;-65
2023/09/01 04:43:46;;;;;;;7.82;2.90;;;9.90;99.90;;;;;;5102674;28;20509;-65
2023/09/01 04:46:14;;;;;;;5.93;3.28;;;9.90;99.90;;;;;;5109842;28;20540;-67
2023/09/01 04:48:42;;;;;;;4.90;2.83;;;9.90;99.90;;;;;;5084218;28;20075;-66
2023/09/01 04:51:09;;;;;;;6.00;3.05;;;9.80;99.90;;;;;;5105115;28;20043;-65
2023/09/01 04:53:36;;;;;;;5.50;2.95;;;9.80;99.90;;;;;;5100620;28;20054;-65
2023/09/01 04:56:03;;;;;;;6.53;3.28;;;9.80;99.90;;;;;;5100620;28;20069;-66
2023/09/01 04:58:30;;;;;;;6.82;3.35;;;9.80;99.90;;;;;;5079655;28;20097;-67
2023/09/01 05:00:57;;;;;;;4.63;3.15;;;9.80;99.90;;;;;;5104758;28;20048;-66
2023/09/01 05:03:26;;;;;;;7.57;3.78;;;9.80;99.90;;;;;;5101633;28;20426;-68
2023/09/01 05:05:53;;;;;;;6.70;3.65;;;9.80;99.90;;;;;;5112478;28;20043;-67
2023/09/01 05:08:20;;;;;;;4.95;3.30;;;9.80;99.90;;;;;;5095911;28;20043;-67
2023/09/01 05:10:46;;;;;;;8.77;3.90;;;9.80;99.90;;;;;;5104544;28;20078;-68
2023/09/01 05:13:13;;;;;;;5.05;3.45;;;9.90;99.90;;;;;;5103939;28;20062;-67
2023/09/01 05:15:40;;;;;;;6.55;3.30;;;9.80;99.90;;;;;;5084484;28;20047;-67
2023/09/01 05:18:07;;;;;;;8.23;3.10;;;9.80;99.90;;;;;;5104601;28;20499;-66
2023/09/01 05:20:36;;;;;;;8.18;3.60;;;9.90;99.90;;;;;;5111354;28;20051;-67
2023/09/01 05:23:03;;;;;;;5.38;3.83;;;9.90;99.90;;;;;;5107536;28;20564;-66
2023/09/01 05:25:30;;;;;;;8.07;4.15;;;10.00;99.90;;;;;;5092957;28;20051;-67
2023/09/01 05:27:57;;;;;;;6.32;3.58;;;10.10;99.90;;;;;;5091325;28;20050;-68
2023/09/01 05:30:24;;;;;;;6.72;3.72;;;10.10;99.90;;;;;;5091659;28;20052;-67
2023/09/01 05:32:51;;;;;;;6.32;3.83;;;10.10;99.90;;;;;;5110324;28;20391;-67
2023/09/01 05:35:18;;;;;;;5.45;3.60;;;10.20;99.90;;;;;;5100399;28;20434;-68
2023/09/01 05:37:47;;;;;;;5.60;3.75;;;10.30;99.90;;;;;;5109975;28;20483;-67
2023/09/01 05:40:14;;;;;;;6.35;3.78;;;10.30;99.90;;;;;;5093921;28;20384;-66
2023/09/01 05:42:41;;;;;;;6.00;3.85;;;10.40;99.90;;;;;;5113498;28;20039;-67
2023/09/01 05:45:08;;;;;;;7.32;4.03;;;10.50;99.90;;;;;;5102283;27;20043;-67
2023/09/01 05:47:36;;;;;;;7.15;3.72;;;10.70;99.90;;;;;;5094714;28;20093;-66
2023/09/01 05:50:04;;;;;;;7.45;3.80;;;10.80;99.90;;;;;;5095139;28;20047;-67
2023/09/01 05:52:31;;;;;;;8.65;4.07;;;10.90;99.90;;;;;;5116088;27;20123;-68
2023/09/01 05:54:59;;;;;;;8.57;4.20;;;11.10;99.90;;;;;;5088901;28;20058;-66
2023/09/01 05:57:26;;;;;;;6.68;3.58;;;11.20;99.90;;;;;;5104719;27;20044;-69
2023/09/01 05:59:53;;;;;;;6.75;3.47;;;11.40;99.90;;;;;;5103952;27;20135;-70
2023/09/01 06:02:20;;;;;;;5.45;3.40;;;11.50;99.90;;;;;;5111140;27;20055;-68
2023/09/01 06:04:47;;;;;;;5.85;3.20;;;11.70;99.90;;;;;;5106246;27;20043;-68
2023/09/01 06:07:13;;;;;;;5.47;2.88;;;11.80;99.90;;;;;;5105495;27;20055;-68
2023/09/01 06:09:40;;;;;;;7.80;3.40;;;12.00;99.90;;;;;;5092979;28;20120;-67
2023/09/01 06:12:09;;;;;;;7.38;3.47;;;12.10;99.90;;;;;;5106267;28;20056;-67
2023/09/01 06:14:36;;;;;;;5.78;3.17;;;12.30;99.90;;;;;;5110679;27;20044;-67
2023/09/01 06:17:03;;;;;;;7.35;3.35;;;12.40;99.90;;;;;;5104254;28;20491;-70
2023/09/01 06:19:30;;;;;;;6.03;3.33;;;12.50;99.90;;;;;;5109253;27;20062;-68
2023/09/01 06:21:57;;;;;;;8.07;3.03;;;12.70;99.90;;;;;;5106965;27;20067;-69
2023/09/01 06:24:25;;;;;;;5.32;3.10;;;13.00;99.90;;;;;;5087296;28;20066;-68
2023/09/01 06:26:52;;;;;;;7.47;3.67;;;13.40;99.90;;;;;;5109745;27;20051;-68
2023/09/01 06:29:20;;;;;;;5.15;3.10;;;13.90;99.90;;;;;;5110773;27;20276;-69
2023/09/01 06:31:47;;;;;;;5.97;3.42;;;14.40;99.90;;;;;;5093213;28;20054;-68
2023/09/01 06:34:14;;;;;;;5.85;3.13;;;14.80;99.90;;;;;;5092773;28;20054;-68
2023/09/01 06:36:41;;;;;;;3.92;2.83;;;15.20;99.90;;;;;;5090499;28;20055;-68
2023/09/01 06:39:08;;;;;;;6.72;3.13;;;15.50;99.90;;;;;;5112340;27;20066;-68
2023/09/01 06:41:35;;;;;;;6.28;2.72;;;15.90;99.90;;;;;;5094758;27;20054;-67
2023/09/01 06:44:02;;;;;;;4.85;2.65;;;16.10;99.90;;;;;;5110671;27;20093;-67
2023/09/01 06:46:30;;;;;;;4.65;2.17;;;16.40;99.90;;;;;;5094830;27;20047;-67
2023/09/01 06:48:57;;;;;;;6.22;2.15;;;16.80;99.90;;;;;;5131954;27;20043;-68
2023/09/01 06:51:24;;;;;;;4.38;2.05;;;17.20;99.90;;;;;;5094928;27;20090;-67
2023/09/01 06:53:51;;;;;;;6.78;2.75;;;17.30;99.90;;;;;;5132615;27;20054;-68
2023/09/01 06:56:18;;;;;;;3.65;1.92;;;17.40;99.90;;;;;;5114990;27;20046;-67
2023/09/01 06:58:45;;;;;;;3.78;2.10;;;17.90;99.90;;;;;;5123550;27;20056;-68
2023/09/01 07:01:15;;;;;;;3.10;2.10;;;18.40;99.90;;;;;;5077838;27;20048;-68
2023/09/01 07:03:43;;;;;;;3.80;1.90;;;19.10;99.90;;;;;;5078546;28;20062;-67
2023/09/01 07:06:10;;;;;;;4.75;2.38;;;19.10;99.90;;;;;;5077246;28;20059;-67
2023/09/01 07:08:37;;;;;;;4.30;2.00;;;19.00;99.90;;;;;;5089658;27;20079;-68
2023/09/01 07:11:05;;;;;;;5.18;1.88;;;19.00;99.90;;;;;;5132800;27;20060;-68
2023/09/01 07:13:32;;;;;;;6.57;1.98;;;19.20;99.90;;;;;;5133445;27;20050;-68
2023/09/01 07:15:59;;;;;;;4.45;2.38;;;19.30;99.90;;;;;;5120436;27;20403;-68
2023/09/01 07:18:26;;;;;;;5.75;2.60;;;19.60;99.90;;;;;;5094335;27;20040;-68
2023/09/01 07:20:58;;;;;;;3.95;1.80;;;20.00;99.90;;;;;;5095478;28;20055;-70
2023/09/01 07:23:25;;;;;;;4.05;2.05;;;20.50;99.90;;;;;;5094677;28;20058;-68
2023/09/01 07:25:53;;;;;;;5.75;2.00;;;20.90;99.90;;;;;;5077463;28;20044;-68
2023/09/01 07:28:20;;;;;;;4.10;1.92;;;20.90;99.90;;;;;;5094180;27;20048;-67
2023/09/01 07:30:47;;;;;;;3.25;1.75;;;21.50;99.90;;;;;;5076878;28;20047;-68
2023/09/01 07:33:14;;;;;;;5.13;2.00;;;22.00;99.90;;;;;;5128746;27;20051;-68
2023/09/01 07:35:45;;;;;;;3.22;1.63;;;22.50;99.90;;;;;;5120766;27;20043;-67
2023/09/01 07:38:14;;;;;;;4.18;1.85;;;22.90;99.90;;;;;;5078123;28;20317;-68
2023/09/01 07:40:41;;;;;;;2.67;1.60;;;23.20;99.90;;;;;;5109453;28;20047;-68
2023/09/01 07:43:08;;;;;;;4.25;1.35;;;23.70;99.90;;;;;;5109728;28;20043;-68
2023/09/01 07:45:36;;;;;;;3.42;1.48;;;23.60;99.90;;;;;;5093629;28;20048;-68
2023/09/01 07:48:03;;;;;;;6.93;1.75;;;23.50;99.90;;;;;;5092221;27;20542;-68
2023/09/01 07:50:30;;;;;;;4.47;1.23;;;23.20;99.90;;;;;;5093738;28;20108;-69
2023/09/01 07:52:57;;;;;;;3.67;1.30;;;22.60;99.90;;;;;;5092178;28;20055;-68
2023/09/01 07:55:26;;;;;;;4.22;1.30;;;22.20;99.90;;;;;;5093033;28;20054;-68
2023/09/01 07:57:53;;;;;;;5.95;2.03;;;21.70;99.90;;;;;;5108511;28;20116;-69
2023/09/01 08:00:22;;;;;;;3.47;1.40;;;21.30;99.90;;;;;;5104392;28;20043;-69
2023/09/01 08:02:48;;;;;;;5.47;1.70;;;21.10;99.90;;;;;;5108427;28;20059;-69
2023/09/01 08:05:16;;;;;;;4.38;1.77;;;20.90;99.90;;;;;;5084241;28;20052;-69
2023/09/01 08:07:43;;;;;;;3.80;1.42;;;21.00;99.90;;;;;;5108673;27;20060;-69
2023/09/01 08:10:10;;;;;;;3.67;1.17;;;21.10;99.90;;;;;;5100081;27;20487;-69
2023/09/01 08:12:38;;;;;;;3.97;1.40;;;21.30;99.90;;;;;;5091656;28;20047;-69
2023/09/01 08:15:08;;;;;;;3.55;1.13;;;21.50;99.90;;;;;;5089584;28;20048;-70
2023/09/01 08:17:35;;;;;;;4.30;1.52;;;21.40;99.90;;;;;;5102348;28;20044;-69
2023/09/01 08:20:04;;;;;;;3.20;1.20;;;21.50;99.90;;;;;;5091680;28;20059;-69
2023/09/01 08:22:31;;;;;;;5.03;1.40;;;21.60;99.90;;;;;;5102708;28;20500;-71
2023/09/01 08:24:58;;;;;;;3.92;1.30;;;21.60;99.90;;;;;;5106525;28;20122;-70
2023/09/01 08:27:27;;;;;;;12.38;2.70;;;21.50;99.90;;;;;;5092919;28;20053;-68
2023/09/01 08:29:57;;;;;;;3.77;1.07;;;21.40;99.90;;;;;;5091815;28;20048;-68
2023/09/01 08:32:24;;;;;;;3.67;1.40;;;21.30;99.90;;;;;;5105711;28;20043;-67
2023/09/01 08:34:50;;;;;;;4.55;1.23;;;21.40;99.90;;;;;;5107631;28;20085;-67
2023/09/01 08:37:18;;;;;;;8.30;1.67;;;21.30;99.90;;;;;;5108878;28;20054;-68
2023/09/01 08:39:45;;;;;;;4.03;1.20;;;21.30;99.90;;;;;;5106954;28;20455;-67
2023/09/01 08:42:13;;;;;;;3.15;1.27;;;21.40;99.90;;;;;;5100979;28;20043;-68
2023/09/01 08:44:42;;;;;;;5.53;1.40;;;21.60;99.90;;;;;;5107190;28;20082;-68
2023/09/01 08:47:11;;;;;;;3.43;1.40;;;21.50;99.90;;;;;;5102726;28;20487;-67
2023/09/01 08:49:39;;;;;;;3.47;1.10;;;21.40;99.90;;;;;;5104783;28;20297;-72
2023/09/01 08:52:06;;;;;;;3.67;1.25;;;21.60;99.90;;;;;;5094633;28;20092;-68
2023/09/01 08:54:37;;;;;;;4.97;1.33;;;21.50;99.90;;;;;;5091551;28;20056;-70
2023/09/01 08:57:04;;;;;;;2.67;1.13;;;21.30;99.90;;;;;;5076339;28;20055;-69
2023/09/01 08:59:33;;;;;;;3.05;1.00;;;21.10;99.90;;;;;;5092707;28;20051;-69
2023/09/01 09:02:00;;;;;;;3.85;1.20;;;21.10;99.90;;;;;;5092670;28;20416;-70
2023/09/01 09:04:32;;;;;;;1.92;0.90;;;21.20;99.90;;;;;;5074332;28;20093;-70
2023/09/01 09:07:13;;;;;;;3.88;1.20;;;21.10;99.90;;;;;;5075889;28;20448;-70
2023/09/01 09:09:50;;;;;;;3.60;1.13;;;21.00;99.90;;;;;;5091134;28;20062;-71
2023/09/01 09:12:18;;;;;;;3.78;1.02;;;20.90;99.90;;;;;;5097769;27;20094;-71
2023/09/01 09:14:49;;;;;;;3.78;1.10;;;20.80;99.90;;;;;;5055720;28;20506;-69
2023/09/01 09:17:16;;;;;;;4.25;1.17;;;20.80;99.90;;;;;;5116105;28;20047;-70
2023/09/01 09:19:53;;;;;;;3.92;1.20;;;20.80;99.90;;;;;;5115912;28;20036;-69
2023/09/01 09:22:21;;;;;;;3.38;1.23;;;20.70;99.90;;;;;;5078028;28;20074;-68
2023/09/01 09:24:48;;;;;;;3.15;0.82;;;20.60;99.90;;;;;;5113802;28;20055;-68
2023/09/01 09:27:16;;;;;;;2.72;1.02;;;20.50;99.90;;;;;;5097440;27;20139;-69
2023/09/01 09:29:45;;;;;;;2.88;1.48;;;20.50;99.90;;;;;;5095736;27;20044;-68
2023/09/01 09:32:23;;;;;;;5.20;1.20;;;20.50;99.90;;;;;;5078908;27;20054;-69
2023/09/01 09:35:10;;;;;;;3.88;1.40;;;20.70;99.90;;;;;;5095529;28;20058;-68
2023/09/01 09:37:39;;;;;;;2.70;1.23;;;20.70;99.90;;;;;;5115207;28;20052;-70
2023/09/01 09:40:16;;;;;;;2.45;1.50;;;20.80;99.90;;;;;;5109015;27;20403;-68
2023/09/01 09:42:45;;;;;;;2.90;1.20;;;20.80;99.90;;;;;;5095650;27;20381;-69
2023/09/01 09:45:24;;;;;;;4.53;1.13;;;20.90;99.90;;;;;;5079969;27;20044;-69
2023/09/01 09:47:51;;;;;;;4.30;1.20;;;20.70;99.90;;;;;;5115516;28;20071;-69
2023/09/01 09:50:20;;;;;;;4.18;1.25;;;20.70;99.90;;;;;;5094202;28;20043;-68
2023/09/01 09:52:49;;;;;;;3.45;1.38;;;20.70;99.90;;;;;;5078612;28;20055;-69
2023/09/01 09:55:23;;;;;;;3.40;1.35;;;20.60;99.90;;;;;;5095927;27;20086;-69
2023/09/01 09:57:51;;;;;;;4.38;1.42;;;20.30;99.90;;;;;;5097052;27;20063;-69
2023/09/01 10:00:21;;;;;;;2.45;1.10;;;20.30;99.90;;;;;;5098198;27;20036;-69
2023/09/01 10:02:54;;;;;;;3.35;0.95;;;20.30;99.90;;;;;;5096045;27;20052;-69
2023/09/01 10:05:24;;;;;;;5.75;1.20;;;20.40;99.90;;;;;;5077884;27;20051;-68
2023/09/01 10:07:52;;;;;;;4.90;1.20;;;20.40;99.90;;;;;;5095797;27;20055;-68
2023/09/01 10:10:20;;;;;;;2.40;1.08;;;20.30;99.90;;;;;;5077530;28;20065;-68
2023/09/01 10:12:47;;;;;;;2.90;1.25;;;20.40;99.90;;;;;;5095359;28;20067;-68
2023/09/01 10:15:15;;;;;;;2.28;1.10;;;20.50;99.90;;;;;;5096689;28;20548;-69
2023/09/01 10:17:44;;;;;;;2.60;1.20;;;20.60;99.90;;;;;;5078474;28;20060;-69
2023/09/01 10:20:12;;;;;;;5.43;1.25;;;20.90;99.90;;;;;;5094902;27;20052;-69
2023/09/01 10:22:40;;;;;;;5.00;1.27;;;21.10;99.90;;;;;;5095898;27;20058;-69
2023/09/01 10:25:11;;;;;;;4.47;1.27;;;21.10;99.90;;;;;;5133439;27;20059;-69
2023/09/01 10:27:38;;;;;;;;;;;21.50;99.90;;;;;;5134686;27;20047;-69
2023/09/01 10:30:27;;;;;;;3.47;1.10;;;22.10;99.90;;;;;;5133660;27;19919;-68
2023/09/01 10:33:12;;;;;;;4.82;1.30;;;22.80;98.60;;;;;;5114787;27;20051;-69
2023/09/01 10:35:41;;;;;;;6.38;1.30;;;23.00;98.50;;;;;;5133948;27;20111;-69
2023/09/01 10:38:15;;;;;;;2.70;1.10;;;23.10;98.50;;;;;;5112019;28;20047;-68
2023/09/01 10:40:47;;;;;;;4.90;1.10;;;23.20;98.80;;;;;;5117846;27;20145;-69
2023/09/01 10:43:15;;;;;;;3.45;1.83;;;23.10;98.30;;;;;;5133788;27;20047;-69
2023/09/01 10:45:42;;;;;;;2.90;1.00;;;23.20;98.40;;;;;;5115325;27;20043;-69
2023/09/01 10:48:12;;;;;;;2.35;1.00;;;23.00;98.50;;;;;;5115080;27;20452;-69
2023/09/01 10:50:43;;;;;;;3.47;1.15;;;23.10;98.20;;;;;;5112760;27;20043;-69
2023/09/01 10:53:30;;;;;;;3.72;1.13;;;23.10;98.00;;;;;;5094434;27;20047;-69
2023/09/01 10:56:11;;;;;;;5.00;1.15;;;23.70;96.90;;;;;;5077908;28;20048;-70
2023/09/01 10:58:47;;;;;;;3.10;1.30;;;24.10;96.00;;;;;;5101718;27;20051;-69
2023/09/01 11:01:29;;;;;;;3.53;1.52;;;24.30;95.90;;;;;;5086170;28;20055;-69
2023/09/01 11:03:56;;;;;;;3.70;1.65;;;24.00;95.30;;;;;;5086727;28;20487;-69
2023/09/01 11:06:24;;;;;;;3.22;1.30;;;24.10;96.40;;;;;;5093736;28;20055;-70
2023/09/01 11:09:01;;;;;;;3.80;1.55;;;24.10;96.30;;;;;;5089626;28;20040;-72
2023/09/01 11:11:29;;;;;;;4.00;1.83;;;24.20;96.30;;;;;;5104253;28;20048;-70
2023/09/01 11:14:01;;;;;;;3.97;1.42;;;24.60;96.80;;;;;;5112089;28;20052;-71
2023/09/01 11:16:27;;;;;;;3.13;1.50;;;24.80;95.50;;;;;;5090365;28;20043;-70
2023/09/01 11:19:02;;;;;;;3.85;1.55;;;24.80;96.10;;;;;;5092907;28;20101;-70
2023/09/01 11:21:29;;;;;;;3.30;1.38;;;24.80;96.00;;;;;;5102247;28;20522;-71
2023/09/01 11:24:03;;;;;;;3.10;1.20;;;25.00;95.30;;;;;;5111486;28;20403;-69
2023/09/01 11:26:30;;;;;;;3.30;1.25;;;25.10;93.70;;;;;;5104614;27;20089;-69
2023/09/01 11:28:57;;;;;;;5.03;1.63;;;25.00;94.10;;;;;;5089405;28;20044;-69
2023/09/01 11:31:24;;;;;;;2.50;1.30;;;25.00;94.60;;;;;;5086746;28;20052;-71
2023/09/01 11:33:52;;;;;;;3.05;1.08;;;25.50;94.20;;;;;;5091689;28;20620;-70
2023/09/01 11:36:20;;;;;;;3.38;1.40;;;26.20;93.00;;;;;;5109449;28;20055;-69
2023/09/01 11:38:47;;;;;;;5.85;1.50;;;26.40;92.90;;;;;;5084767;28;20051;-71
2023/09/01 11:41:18;;;;;;;5.15;1.83;;;26.70;93.20;;;;;;5090550;28;20483;-71
2023/09/01 11:43:45;;;;;;;2.47;1.13;;;26.80;92.70;;;;;;5091624;28;20048;-71
2023/09/01 11:46:13;;;;;;;5.80;1.60;;;27.10;92.00;;;;;;5107778;28;20044;-70
2023/09/01 11:48:40;;;;;;;2.80;1.17;;;27.50;91.60;;;;;;5109377;27;20085;-68
2023/09/01 11:51:08;;;;;;;3.28;1.50;;;28.50;91.30;;;;;;5108391;28;20109;-71
2023/09/01 11:53:36;;;;;;;4.45;1.30;;;28.90;90.80;;;;;;5097589;27;20047;-71
2023/09/01 11:56:20;;;;;;;7.07;1.42;;;29.00;90.10;;;;;;5108473;27;20056;-69
2023/09/01 11:58:48;;;;;;;3.40;1.50;;;28.90;87.70;;;;;;5099930;28;20051;-70
2023/09/01 12:01:16;;;;;;;3.97;1.52;;;28.80;88.50;;;;;;5108987;27;20118;-69
2023/09/01 12:03:47;;;;;;;4.10;1.42;;;28.90;89.00;;;;;;5103549;28;20070;-70
2023/09/01 12:06:18;;;;;;;3.70;1.52;;;28.50;88.50;;;;;;5092418;28;20055;-70
2023/09/01 12:08:46;;;;;;;4.05;1.58;;;28.50;87.00;;;;;;5104399;28;20136;-69
2023/09/01 12:11:13;;;;;;;3.85;1.67;;;28.70;88.50;;;;;;5092872;28;20058;-68
2023/09/01 12:13:43;;;;;;;5.35;1.80;;;28.80;88.00;;;;;;5107455;28;20089;-69
2023/09/01 12:16:19;;;;;;;3.58;1.98;;;28.10;86.90;;;;;;5108787;28;20047;-70
2023/09/01 12:18:47;;;;;;;3.75;1.90;;;27.70;87.30;;;;;;5108639;28;20051;-69
2023/09/01 12:21:14;;;;;;;4.00;1.95;;;27.50;89.20;;;;;;5076274;28;20062;-69
2023/09/01 12:23:42;;;;;;;5.68;1.90;;;27.40;88.70;;;;;;5079791;27;20051;-71
2023/09/01 12:26:09;;;;;;;3.50;1.65;;;28.00;89.80;;;;;;5108248;27;20487;-69
2023/09/01 12:28:39;;;;;;;5.13;1.80;;;28.40;89.80;;;;;;5111580;28;20053;-69
2023/09/01 12:31:09;;;;;;;5.68;1.92;;;29.10;88.70;;;;;;5105974;28;20458;-69
2023/09/01 12:33:36;;;;;;;;;;;29.60;86.30;;;;;;5105693;27;20043;-68
2023/09/01 12:36:04;;;;;;;4.40;1.98;;;29.80;84.20;;;;;;5113621;27;19919;-70
2023/09/01 12:38:31;;;;;;;5.45;2.00;;;29.90;84.80;;;;;;5099735;28;20043;-69
2023/09/01 12:40:58;;;;;;;4.57;2.30;;;30.60;84.80;;;;;;5065697;28;20483;-70
2023/09/01 12:43:25;;;;;;;4.90;1.77;;;30.50;83.80;;;;;;5102660;28;20435;-70
2023/09/01 12:45:52;;;;;;;5.00;1.80;;;30.60;84.20;;;;;;5082475;28;20501;-69
2023/09/01 12:48:20;;;;;;;8.27;2.30;;;30.70;84.50;;;;;;5095789;28;20398;-70
2023/09/01 12:50:49;;;;;;;6.15;2.13;;;31.10;81.80;;;;;;5100669;28;20044;-70
2023/09/01 12:53:16;;;;;;;4.10;1.90;;;31.00;81.80;;;;;;5092388;28;20055;-70
2023/09/01 12:55:45;;;;;;;4.68;1.90;;;31.60;82.20;;;;;;5113582;28;20055;-70